Time;durP1;ratioP1;P1;durP2;ratioP2;P2;SDS_P1;SDS_P2;PMS_P1;PMS_P2;Temp;Humidity;BMP_temperature;BMP_pressure;BME280_temperature;BME280_humidity;BME280_pressure;Samples;Min_cycle;Max_cycle;Signal;HPM_P1;HPM_P2
2023/05/09 00:01:38;;;;;;;24.73;20.03;;;10.00;99.90;;;;;;5013981;28;20034;-86
2023/05/09 00:04:04;;;;;;;26.40;20.47;;;10.00;99.90;;;;;;5012334;28;20017;-86
2023/05/09 00:06:31;;;;;;;25.50;20.60;;;9.90;99.90;;;;;;5011718;28;20100;-86
2023/05/09 00:08:56;;;;;;;23.37;18.23;;;9.90;99.90;;;;;;5011249;28;20034;-86
2023/05/09 00:11:22;;;;;;;22.07;17.50;;;9.90;99.90;;;;;;5013055;28;20065;-86
2023/05/09 00:13:49;;;;;;;24.00;17.97;;;9.90;99.90;;;;;;5013866;28;20492;-86
2023/05/09 00:16:16;;;;;;;23.27;18.07;;;9.80;99.90;;;;;;5014718;28;20052;-86
2023/05/09 00:18:42;;;;;;;21.43;17.20;;;9.80;99.90;;;;;;5013798;28;20045;-87
2023/05/09 00:21:09;;;;;;;20.63;17.13;;;9.80;99.90;;;;;;5013959;28;20406;-86
2023/05/09 00:23:35;;;;;;;21.73;16.97;;;9.80;99.90;;;;;;5011153;28;20795;-86
2023/05/09 00:26:01;;;;;;;20.00;17.13;;;9.80;99.90;;;;;;5013787;28;20057;-86
2023/05/09 00:28:26;;;;;;;19.67;16.33;;;9.80;99.90;;;;;;5014578;28;20439;-86
2023/05/09 00:30:52;;;;;;;19.87;16.80;;;9.70;99.90;;;;;;5012436;28;21714;-86
2023/05/09 00:33:19;;;;;;;20.30;17.37;;;9.70;99.90;;;;;;5012442;28;20049;-86
2023/05/09 00:35:45;;;;;;;19.73;16.10;;;9.70;99.90;;;;;;5011217;28;21633;-87
2023/05/09 00:38:10;;;;;;;20.63;16.37;;;9.70;99.90;;;;;;5011322;28;20075;-87
2023/05/09 00:40:36;;;;;;;18.90;15.80;;;9.70;99.90;;;;;;5011080;28;20046;-86
2023/05/09 00:43:01;;;;;;;19.63;16.30;;;9.70;99.90;;;;;;5010497;28;20034;-86
2023/05/09 00:45:27;;;;;;;20.03;16.97;;;9.60;99.90;;;;;;5011049;28;20025;-86
2023/05/09 00:47:53;;;;;;;21.33;16.93;;;9.60;99.90;;;;;;5010618;28;20018;-87
2023/05/09 00:50:18;;;;;;;22.87;17.50;;;9.60;99.90;;;;;;5012463;28;20042;-87
2023/05/09 00:52:44;;;;;;;23.63;18.07;;;9.50;99.90;;;;;;5011261;28;20045;-87
2023/05/09 00:55:10;;;;;;;22.30;17.20;;;9.50;99.90;;;;;;5012223;28;20036;-86
2023/05/09 00:57:36;;;;;;;22.90;17.00;;;9.40;99.90;;;;;;5013270;28;20095;-86
2023/05/09 01:00:03;;;;;;;20.30;16.80;;;9.40;99.90;;;;;;5012089;28;20129;-86
2023/05/09 01:02:29;;;;;;;22.57;18.80;;;9.30;99.90;;;;;;5012124;28;20468;-86
2023/05/09 01:04:54;;;;;;;23.13;18.63;;;9.30;99.90;;;;;;5013203;28;20118;-86
2023/05/09 01:07:58;;;;;;;23.53;16.80;;;9.30;99.90;;;;;;5012203;28;20052;-87
2023/05/09 01:10:53;;;;;;;20.43;16.67;;;9.30;99.90;;;;;;5012566;28;20425;-86
2023/05/09 01:13:51;;;;;;;20.77;16.57;;;9.20;99.90;;;;;;5013239;28;20037;-87
2023/05/09 01:16:37;;;;;;;20.67;17.00;;;9.20;99.90;;;;;;5004499;28;20041;-87
2023/05/09 01:20:20;;;;;;;21.67;17.70;;;9.10;99.90;;;;;;5011019;28;20096;-86
2023/05/09 01:23:03;;;;;;;20.43;16.63;;;9.10;99.90;;;;;;4895051;29;20063;-87
2023/05/09 01:25:31;;;;;;;21.37;17.20;;;9.10;99.90;;;;;;4894327;29;20378;-86
2023/05/09 01:28:12;;;;;;;22.57;16.93;;;9.10;99.90;;;;;;4974004;28;20061;-86
2023/05/09 01:30:40;;;;;;;21.07;16.63;;;9.00;99.90;;;;;;5011472;28;20037;-86
2023/05/09 01:33:07;;;;;;;22.73;16.50;;;9.00;99.90;;;;;;5011398;28;20033;-86
2023/05/09 01:35:36;;;;;;;22.27;16.87;;;9.00;99.90;;;;;;5011091;28;20030;-86
2023/05/09 01:38:08;;;;;;;20.67;16.93;;;9.00;99.90;;;;;;5011565;28;20036;-86
2023/05/09 01:40:35;;;;;;;20.33;16.30;;;8.90;99.90;;;;;;5012664;28;21228;-86
2023/05/09 01:43:05;;;;;;;24.90;17.40;;;8.90;99.90;;;;;;5010963;28;20029;-86
2023/05/09 01:45:31;;;;;;;21.93;16.50;;;8.90;99.90;;;;;;5011824;28;20026;-86
2023/05/09 01:47:58;;;;;;;19.43;16.40;;;8.90;99.90;;;;;;5012976;28;20041;-86
2023/05/09 01:50:24;;;;;;;21.13;16.60;;;8.90;99.90;;;;;;5012833;28;20142;-86
2023/05/09 01:52:54;;;;;;;19.83;16.57;;;8.80;99.90;;;;;;5012101;28;20057;-86
2023/05/09 01:55:24;;;;;;;19.97;16.67;;;8.80;99.90;;;;;;5013195;28;20018;-86
2023/05/09 01:57:50;;;;;;;22.93;17.87;;;8.80;99.90;;;;;;5016181;28;20041;-87
2023/05/09 02:00:18;;;;;;;22.23;16.97;;;8.70;99.90;;;;;;5017006;28;20157;-86
2023/05/09 02:02:44;;;;;;;20.07;16.33;;;8.70;99.90;;;;;;5020412;28;20021;-86
2023/05/09 02:05:10;;;;;;;21.30;16.70;;;8.70;99.90;;;;;;5013447;28;20117;-87
2023/05/09 02:07:37;;;;;;;23.67;17.17;;;8.70;99.90;;;;;;5013792;28;20080;-87
2023/05/09 02:10:04;;;;;;;23.40;16.93;;;8.70;99.90;;;;;;5014691;28;20030;-85
2023/05/09 02:12:30;;;;;;;23.87;16.63;;;8.60;99.90;;;;;;5013698;28;20037;-86
2023/05/09 02:14:55;;;;;;;19.30;16.43;;;8.60;99.90;;;;;;5012816;28;20034;-86
2023/05/09 02:17:21;;;;;;;22.83;16.43;;;8.60;99.90;;;;;;5013292;28;20044;-86
2023/05/09 02:19:46;;;;;;;19.80;16.03;;;8.60;99.90;;;;;;5011487;28;20064;-86
2023/05/09 02:22:13;;;;;;;19.97;15.67;;;8.50;99.90;;;;;;5013066;28;20084;-86
2023/05/09 02:24:39;;;;;;;21.40;16.30;;;8.50;99.90;;;;;;4994092;28;20140;-85
2023/05/09 02:27:06;;;;;;;19.77;15.47;;;8.50;99.90;;;;;;5011903;28;20525;-85
2023/05/09 02:29:39;;;;;;;22.60;16.80;;;8.40;99.90;;;;;;5012679;28;20061;-85
2023/05/09 02:32:08;;;;;;;21.77;16.90;;;8.40;99.90;;;;;;5012071;28;20034;-87
2023/05/09 02:34:36;;;;;;;22.33;16.67;;;8.40;99.90;;;;;;5011260;28;20030;-86
2023/05/09 02:37:02;;;;;;;21.60;16.10;;;8.30;99.90;;;;;;4993033;28;20263;-86
2023/05/09 02:39:27;;;;;;;22.47;17.10;;;8.30;99.90;;;;;;5011824;28;20034;-86
2023/05/09 02:41:53;;;;;;;21.97;16.23;;;8.30;99.90;;;;;;5010090;28;20026;-86
2023/05/09 02:44:19;;;;;;;21.97;16.77;;;8.30;99.90;;;;;;5008299;28;20037;-86
2023/05/09 02:46:44;;;;;;;19.77;15.97;;;8.30;99.90;;;;;;5009783;28;20030;-85
2023/05/09 02:49:10;;;;;;;21.50;16.17;;;8.20;99.90;;;;;;5009890;28;20084;-86
2023/05/09 02:51:35;;;;;;;22.80;17.27;;;8.20;99.90;;;;;;4992620;28;20041;-85
2023/05/09 02:54:01;;;;;;;21.93;16.90;;;8.20;99.90;;;;;;5008985;28;20212;-86
2023/05/09 02:56:26;;;;;;;25.73;16.90;;;8.20;99.90;;;;;;5009972;28;20082;-86
2023/05/09 02:58:52;;;;;;;27.13;16.53;;;8.20;99.90;;;;;;5009018;28;20044;-86
2023/05/09 03:01:17;;;;;;;21.03;16.23;;;8.10;99.90;;;;;;5009621;28;20116;-86
2023/05/09 03:03:43;;;;;;;20.13;16.20;;;8.10;99.90;;;;;;5006119;28;20117;-87
2023/05/09 03:06:08;;;;;;;20.70;16.10;;;8.10;99.90;;;;;;5007382;28;20034;-86
2023/05/09 03:08:34;;;;;;;25.97;16.97;;;8.10;99.90;;;;;;5009475;28;20026;-86
2023/05/09 03:11:00;;;;;;;22.40;16.87;;;8.10;99.90;;;;;;5011422;28;20025;-86
2023/05/09 03:13:25;;;;;;;20.33;16.97;;;8.10;99.90;;;;;;5014625;28;20037;-86
2023/05/09 03:15:51;;;;;;;20.47;16.30;;;8.10;99.90;;;;;;5013951;28;20013;-86
2023/05/09 03:18:17;;;;;;;22.77;17.97;;;8.10;99.90;;;;;;5013068;28;20520;-86
2023/05/09 03:20:43;;;;;;;22.80;16.67;;;8.10;99.90;;;;;;5016739;28;20045;-86
2023/05/09 03:23:09;;;;;;;21.60;15.73;;;8.00;99.90;;;;;;5016880;28;20351;-87
2023/05/09 03:25:34;;;;;;;21.90;15.77;;;8.00;99.90;;;;;;5014986;28;20041;-86
2023/05/09 03:28:00;;;;;;;20.23;15.67;;;8.00;99.90;;;;;;5017153;28;20441;-86
2023/05/09 03:30:26;;;;;;;25.83;16.60;;;8.00;99.90;;;;;;5015976;28;20052;-86
2023/05/09 03:32:51;;;;;;;30.17;16.53;;;7.90;99.90;;;;;;5017050;28;20488;-86
2023/05/09 03:35:17;;;;;;;21.33;16.53;;;7.90;99.90;;;;;;5016148;28;20544;-86
2023/05/09 03:37:42;;;;;;;25.70;17.50;;;7.90;99.90;;;;;;5015766;28;20021;-86
2023/05/09 03:40:08;;;;;;;24.87;15.77;;;7.90;99.90;;;;;;5014384;28;20049;-85
2023/05/09 03:42:34;;;;;;;26.00;16.57;;;7.80;99.90;;;;;;5015674;28;20052;-85
2023/05/09 03:45:00;;;;;;;25.83;16.70;;;7.80;99.90;;;;;;5013900;28;20144;-86
2023/05/09 03:47:25;;;;;;;25.13;17.13;;;7.80;99.90;;;;;;5016596;28;20030;-86
2023/05/09 03:49:52;;;;;;;29.53;18.00;;;7.80;99.90;;;;;;4997169;28;20026;-87
2023/05/09 03:52:17;;;;;;;27.00;18.83;;;7.80;99.90;;;;;;5015040;28;20057;-86
2023/05/09 03:54:43;;;;;;;29.33;19.17;;;7.80;99.90;;;;;;5015393;28;20064;-86
2023/05/09 03:57:09;;;;;;;29.40;21.30;;;7.80;99.90;;;;;;5013412;28;20037;-87
2023/05/09 03:59:34;;;;;;;32.30;23.03;;;7.80;99.90;;;;;;5013596;28;20042;-85
2023/05/09 04:02:00;;;;;;;30.93;20.93;;;7.80;99.90;;;;;;5014641;28;20469;-86
2023/05/09 04:04:26;;;;;;;27.83;18.90;;;7.80;99.90;;;;;;5012774;28;20034;-87
2023/05/09 04:06:51;;;;;;;23.87;17.73;;;7.80;99.90;;;;;;5014797;28;20034;-86
2023/05/09 04:09:18;;;;;;;27.30;18.73;;;7.80;99.90;;;;;;5014208;28;20030;-83
2023/05/09 04:11:43;;;;;;;25.07;16.93;;;7.70;99.90;;;;;;5016668;28;20034;-84
2023/05/09 04:14:09;;;;;;;26.57;18.43;;;7.70;99.90;;;;;;5015744;28;20022;-85
2023/05/09 04:16:34;;;;;;;22.70;17.00;;;7.70;99.90;;;;;;5015858;28;20032;-84
2023/05/09 04:19:00;;;;;;;21.03;16.47;;;7.70;99.90;;;;;;5015470;28;20057;-84
2023/05/09 04:21:25;;;;;;;20.10;16.30;;;7.70;99.90;;;;;;5015635;28;20029;-85
2023/05/09 04:23:51;;;;;;;25.33;16.47;;;7.70;99.90;;;;;;5014781;28;20925;-84
2023/05/09 04:26:17;;;;;;;26.57;17.03;;;7.70;99.90;;;;;;5015973;28;20038;-84
2023/05/09 04:28:42;;;;;;;22.73;17.30;;;7.80;99.90;;;;;;5015584;28;20045;-85
2023/05/09 04:31:08;;;;;;;23.27;18.43;;;7.80;99.90;;;;;;5015630;28;20022;-85
2023/05/09 04:33:34;;;;;;;28.13;18.40;;;7.90;99.90;;;;;;5014594;28;20080;-84
2023/05/09 04:36:00;;;;;;;32.93;20.33;;;7.90;99.90;;;;;;5015758;28;20033;-84
2023/05/09 04:38:26;;;;;;;27.17;19.30;;;8.00;99.90;;;;;;5016564;28;20505;-85
2023/05/09 04:40:52;;;;;;;31.10;21.47;;;8.00;99.90;;;;;;5017248;28;20045;-84
2023/05/09 04:43:17;;;;;;;34.20;24.53;;;8.10;99.90;;;;;;5015378;28;20137;-84
2023/05/09 04:45:44;;;;;;;31.07;23.83;;;8.20;99.90;;;;;;5017655;28;20064;-84
2023/05/09 04:48:09;;;;;;;34.87;25.10;;;8.40;99.90;;;;;;5018016;28;20057;-84
2023/05/09 04:50:35;;;;;;;34.17;25.10;;;8.60;99.90;;;;;;5017584;28;20053;-89
2023/05/09 04:53:07;;;;;;;33.97;24.37;;;8.80;99.90;;;;;;5015680;28;20182;-91
2023/05/09 04:55:32;;;;;;;28.90;22.77;;;8.90;99.90;;;;;;5018892;28;20037;-92
2023/05/09 04:58:03;;;;;;;30.90;22.73;;;9.10;99.90;;;;;;5020819;28;20086;-89
2023/05/09 05:00:29;;;;;;;30.73;22.60;;;9.30;99.90;;;;;;4996956;28;20049;-90
2023/05/09 05:02:54;;;;;;;30.97;22.57;;;9.30;99.90;;;;;;5057762;22;20054;-84
2023/05/09 05:05:20;;;;;;;29.47;21.90;;;9.50;99.90;;;;;;5005214;28;20053;-84
2023/05/09 05:07:46;;;;;;;24.47;19.10;;;9.60;99.90;;;;;;5003826;28;20178;-84
2023/05/09 05:10:12;;;;;;;24.33;19.87;;;9.70;99.90;;;;;;5006287;28;20034;-84
2023/05/09 05:12:38;;;;;;;28.20;19.50;;;9.80;99.90;;;;;;5005835;28;20034;-83
2023/05/09 05:15:04;;;;;;;23.67;19.23;;;10.00;99.90;;;;;;5005077;28;20127;-84
2023/05/09 05:17:29;;;;;;;22.90;18.13;;;10.10;99.90;;;;;;5006921;28;20034;-82
2023/05/09 05:19:55;;;;;;;24.53;17.83;;;10.20;99.90;;;;;;5000969;28;20042;-81
2023/05/09 05:22:20;;;;;;;19.93;16.43;;;10.30;99.90;;;;;;4984295;28;20390;-84
2023/05/09 05:24:46;;;;;;;25.33;18.30;;;10.50;99.90;;;;;;5000316;28;20873;-81
2023/05/09 05:27:11;;;;;;;21.17;15.67;;;10.60;99.90;;;;;;5001682;28;20120;-84
2023/05/09 05:29:37;;;;;;;24.80;17.77;;;10.80;99.90;;;;;;4999292;28;20029;-84
2023/05/09 05:32:03;;;;;;;20.90;15.13;;;11.00;99.90;;;;;;5001855;28;20046;-81
2023/05/09 05:34:29;;;;;;;16.97;13.67;;;11.20;99.90;;;;;;5000709;28;20076;-82
2023/05/09 05:36:54;;;;;;;19.70;14.23;;;11.40;99.90;;;;;;5001848;28;20029;-83
2023/05/09 05:39:20;;;;;;;17.13;13.70;;;11.60;99.90;;;;;;5001953;28;20041;-83
2023/05/09 05:41:45;;;;;;;18.40;13.93;;;11.70;99.90;;;;;;5001852;28;20141;-82
2023/05/09 05:44:11;;;;;;;18.73;14.10;;;11.80;99.90;;;;;;5001710;28;20045;-82
2023/05/09 05:46:36;;;;;;;16.83;13.45;;;11.90;99.90;;;;;;5004045;28;20072;-83
2023/05/09 05:49:02;;;;;;;15.20;12.63;;;12.20;99.90;;;;;;5001711;28;20148;-82
2023/05/09 05:51:27;;;;;;;14.32;12.43;;;12.30;99.90;;;;;;5009084;28;20064;-84
2023/05/09 05:53:53;;;;;;;15.80;12.60;;;12.40;99.90;;;;;;5000013;28;20041;-84
2023/05/09 05:56:19;;;;;;;16.70;13.25;;;12.50;99.90;;;;;;5000345;28;20036;-81
2023/05/09 05:58:44;;;;;;;15.73;12.75;;;12.60;99.90;;;;;;5009094;28;20053;-85
2023/05/09 06:01:10;;;;;;;25.50;13.40;;;12.60;99.90;;;;;;5000815;28;20896;-83
2023/05/09 06:03:35;;;;;;;24.02;13.77;;;12.60;99.90;;;;;;4998968;28;20519;-83
2023/05/09 06:06:01;;;;;;;17.05;14.02;;;12.60;99.90;;;;;;4997125;28;20038;-82
2023/05/09 06:08:27;;;;;;;16.13;12.85;;;12.60;99.90;;;;;;4995011;28;20037;-82
2023/05/09 06:10:52;;;;;;;12.85;11.10;;;12.80;99.90;;;;;;4996654;28;20160;-84
2023/05/09 06:13:18;;;;;;;15.95;11.77;;;12.90;99.90;;;;;;5005631;28;20026;-82
2023/05/09 06:15:44;;;;;;;13.68;12.15;;;13.10;99.90;;;;;;5006417;28;20034;-82
2023/05/09 06:18:09;;;;;;;14.65;11.50;;;13.20;99.90;;;;;;5004760;28;20033;-82
2023/05/09 06:20:35;;;;;;;16.27;12.65;;;13.20;99.90;;;;;;5003501;28;20049;-83
2023/05/09 06:23:00;;;;;;;16.40;12.45;;;13.40;99.90;;;;;;5004596;28;20086;-81
2023/05/09 06:25:26;;;;;;;13.98;12.35;;;13.40;99.90;;;;;;5004559;28;20034;-83
2023/05/09 06:27:51;;;;;;;14.48;12.15;;;13.50;99.90;;;;;;5005389;28;20098;-83
2023/05/09 06:30:17;;;;;;;15.77;12.23;;;13.50;99.90;;;;;;5004337;28;20631;-82
2023/05/09 06:32:42;;;;;;;16.60;11.73;;;13.40;99.90;;;;;;5004759;28;20534;-83
2023/05/09 06:35:08;;;;;;;13.35;11.60;;;13.40;99.90;;;;;;5002896;28;20051;-83
2023/05/09 06:37:34;;;;;;;14.00;12.20;;;13.50;99.90;;;;;;5004999;28;20076;-82
2023/05/09 06:39:59;;;;;;;18.63;12.10;;;13.50;99.90;;;;;;5003410;28;20038;-82
2023/05/09 06:42:25;;;;;;;16.00;12.88;;;13.60;99.90;;;;;;5003599;28;20057;-83
2023/05/09 06:44:50;;;;;;;17.00;12.88;;;13.60;99.90;;;;;;5002498;28;20397;-82
2023/05/09 06:47:16;;;;;;;15.63;11.95;;;13.50;99.90;;;;;;5003181;28;20033;-86
2023/05/09 06:49:42;;;;;;;15.73;12.65;;;13.50;99.90;;;;;;5002532;28;20034;-86
2023/05/09 06:52:07;;;;;;;18.08;12.68;;;13.50;99.90;;;;;;5003748;28;20022;-86
2023/05/09 06:54:32;;;;;;;16.95;12.60;;;13.70;99.90;;;;;;5002750;28;20492;-86
2023/05/09 06:56:59;;;;;;;16.20;12.88;;;13.70;99.90;;;;;;5002833;28;20504;-87
2023/05/09 06:59:24;;;;;;;16.35;12.38;;;13.80;99.90;;;;;;5002122;28;20038;-86
2023/05/09 07:01:50;;;;;;;16.70;11.73;;;14.00;99.90;;;;;;5001129;28;20681;-86
2023/05/09 07:04:15;;;;;;;19.60;12.93;;;14.10;99.90;;;;;;5001756;28;20065;-86
2023/05/09 07:06:41;;;;;;;20.13;12.38;;;14.00;99.90;;;;;;5002105;28;20026;-88
2023/05/09 07:09:07;;;;;;;17.48;12.57;;;14.00;99.90;;;;;;5002456;28;20771;-86
2023/05/09 07:11:34;;;;;;;15.95;12.43;;;13.90;99.90;;;;;;5002533;28;20406;-86
2023/05/09 07:14:00;;;;;;;17.50;12.95;;;14.00;99.90;;;;;;5001456;28;20037;-87
2023/05/09 07:16:28;;;;;;;15.38;12.35;;;13.90;99.90;;;;;;5003317;28;20038;-86
2023/05/09 07:18:54;;;;;;;22.42;12.48;;;13.90;99.90;;;;;;5003245;28;20022;-75
2023/05/09 07:21:19;;;;;;;17.42;12.73;;;14.00;99.90;;;;;;5002626;28;20481;-79
2023/05/09 07:23:45;;;;;;;17.88;13.05;;;14.00;99.90;;;;;;5002246;28;20037;-81
2023/05/09 07:26:10;;;;;;;16.48;12.80;;;14.10;99.90;;;;;;5002053;28;20030;-81
2023/05/09 07:28:36;;;;;;;16.70;13.07;;;14.20;99.90;;;;;;5002048;28;20037;-79
2023/05/09 07:31:02;;;;;;;15.10;12.05;;;14.30;99.90;;;;;;5002377;28;20505;-82
2023/05/09 07:33:27;;;;;;;15.95;11.77;;;14.50;99.90;;;;;;5003185;28;21410;-79
2023/05/09 07:35:53;;;;;;;16.55;12.48;;;14.70;99.90;;;;;;5002833;28;20040;-78
2023/05/09 07:38:18;;;;;;;17.25;12.20;;;14.80;99.90;;;;;;5002004;28;20362;-80
2023/05/09 07:40:44;;;;;;;15.07;11.90;;;14.90;99.90;;;;;;5002290;28;20539;-81
2023/05/09 07:43:09;;;;;;;17.23;11.98;;;15.00;99.90;;;;;;5001869;28;20060;-78
2023/05/09 07:45:35;;;;;;;20.77;13.93;;;15.20;99.90;;;;;;5001441;28;20030;-79
2023/05/09 07:48:01;;;;;;;17.10;13.15;;;15.30;99.90;;;;;;5002404;28;20127;-78
2023/05/09 07:50:26;;;;;;;17.80;13.13;;;15.50;99.90;;;;;;4990831;28;20040;-78
2023/05/09 07:52:52;;;;;;;16.00;12.88;;;15.50;99.90;;;;;;4991486;28;20034;-80
2023/05/09 07:55:18;;;;;;;20.55;12.77;;;15.50;99.90;;;;;;4991790;28;20718;-79
2023/05/09 07:57:43;;;;;;;21.23;13.27;;;15.50;99.90;;;;;;4993723;28;20167;-79
2023/05/09 08:00:09;;;;;;;20.08;13.00;;;15.50;99.90;;;;;;5001140;28;20486;-79
2023/05/09 08:02:35;;;;;;;24.25;12.38;;;15.50;99.90;;;;;;5004663;28;20501;-78
2023/05/09 08:05:00;;;;;;;17.63;13.55;;;15.70;99.90;;;;;;5005338;28;20044;-80
2023/05/09 08:07:26;;;;;;;16.55;12.90;;;15.70;99.90;;;;;;5011352;28;20029;-80
2023/05/09 08:09:51;;;;;;;17.95;12.85;;;15.70;99.90;;;;;;5008793;28;20038;-79
2023/05/09 08:12:17;;;;;;;16.48;12.55;;;15.70;99.90;;;;;;5008947;28;20017;-79
2023/05/09 08:14:42;;;;;;;26.50;15.75;;;15.70;99.90;;;;;;5007651;28;20025;-80
2023/05/09 08:17:08;;;;;;;32.50;19.48;;;15.70;99.90;;;;;;5008377;28;20048;-79
2023/05/09 08:19:34;;;;;;;24.83;14.65;;;15.70;99.90;;;;;;5008048;28;20091;-79
2023/05/09 08:22:00;;;;;;;56.55;20.70;;;15.70;99.90;;;;;;5007700;28;20877;-79
2023/05/09 08:24:25;;;;;;;20.25;13.13;;;15.70;99.90;;;;;;5005791;28;20034;-79
2023/05/09 08:26:51;;;;;;;17.20;13.32;;;15.70;99.90;;;;;;5006837;28;20033;-79
2023/05/09 08:29:16;;;;;;;17.17;13.38;;;15.70;99.90;;;;;;5007980;28;20033;-79
2023/05/09 08:31:42;;;;;;;23.25;14.93;;;15.70;99.90;;;;;;5007591;28;20068;-79
2023/05/09 08:34:08;;;;;;;22.48;14.38;;;15.60;99.90;;;;;;5006687;28;20446;-79
2023/05/09 08:36:33;;;;;;;19.65;13.15;;;15.60;99.90;;;;;;5008107;28;20026;-79
2023/05/09 08:38:59;;;;;;;20.85;14.07;;;15.60;99.90;;;;;;5005256;28;20026;-79
2023/05/09 08:41:28;;;;;;;20.05;13.93;;;15.60;99.90;;;;;;5005584;28;20026;-80
2023/05/09 08:43:54;;;;;;;17.70;13.07;;;15.50;99.90;;;;;;5006706;28;20091;-79
2023/05/09 08:46:32;;;;;;;20.33;13.93;;;15.60;99.90;;;;;;5006816;28;20457;-79
2023/05/09 08:48:59;;;;;;;17.88;13.68;;;15.60;99.90;;;;;;5007753;28;20171;-79
2023/05/09 08:51:25;;;;;;;17.67;14.60;;;15.70;99.90;;;;;;5006179;28;20040;-78
2023/05/09 08:53:51;;;;;;;17.88;13.40;;;15.70;99.90;;;;;;5006426;28;20029;-79
2023/05/09 08:56:17;;;;;;;19.45;14.18;;;15.80;99.90;;;;;;5006564;28;21333;-79
2023/05/09 08:58:43;;;;;;;24.48;14.02;;;15.90;99.90;;;;;;5006846;28;20030;-78
2023/05/09 09:01:11;;;;;;;17.85;13.90;;;16.00;99.90;;;;;;5006932;28;20410;-79
2023/05/09 09:03:37;;;;;;;16.20;12.93;;;16.10;99.90;;;;;;5006714;28;20042;-79
2023/05/09 09:06:06;;;;;;;20.75;13.95;;;16.20;99.90;;;;;;5005093;28;20042;-79
2023/05/09 09:08:34;;;;;;;17.52;14.00;;;16.30;99.90;;;;;;5006348;28;20048;-78
2023/05/09 09:10:59;;;;;;;21.25;14.05;;;16.50;99.90;;;;;;5006181;28;20073;-79
2023/05/09 09:13:25;;;;;;;17.52;12.35;;;16.60;99.90;;;;;;5006298;28;20042;-79
2023/05/09 09:15:53;;;;;;;18.80;14.55;;;16.60;99.90;;;;;;5006696;28;20022;-78
2023/05/09 09:18:27;;;;;;;17.42;12.07;;;16.70;99.90;;;;;;5005626;28;20042;-79
2023/05/09 09:20:58;;;;;;;17.60;12.50;;;16.80;99.90;;;;;;5005456;28;20041;-79
2023/05/09 09:23:25;;;;;;;17.58;11.98;;;17.00;99.90;;;;;;5005746;28;20064;-79
2023/05/09 09:26:01;;;;;;;19.65;12.65;;;17.10;99.90;;;;;;5008172;28;20043;-79
2023/05/09 09:28:27;;;;;;;14.55;11.88;;;17.40;99.90;;;;;;5006305;28;20327;-79
2023/05/09 09:30:52;;;;;;;15.18;11.75;;;17.60;99.90;;;;;;5007366;28;20310;-79
2023/05/09 09:33:22;;;;;;;18.83;12.07;;;17.80;99.90;;;;;;5008582;28;20450;-79
2023/05/09 09:35:49;;;;;;;17.52;12.02;;;18.00;99.90;;;;;;5008441;28;20048;-79
2023/05/09 09:38:17;;;;;;;16.10;11.93;;;18.30;99.90;;;;;;5008320;28;20030;-79
2023/05/09 09:40:55;;;;;;;17.20;12.43;;;18.50;99.90;;;;;;5004383;28;20560;-79
2023/05/09 09:43:30;;;;;;;16.08;11.95;;;18.80;99.90;;;;;;5008537;28;20042;-79
2023/05/09 09:46:00;;;;;;;13.15;11.20;;;19.00;99.90;;;;;;5008310;28;20043;-80
2023/05/09 09:48:27;;;;;;;14.27;12.20;;;19.10;99.90;;;;;;5007814;28;20081;-79
2023/05/09 09:50:55;;;;;;;16.75;12.35;;;19.30;99.90;;;;;;5008376;28;20505;-83
2023/05/09 09:53:22;;;;;;;14.88;10.90;;;19.50;99.90;;;;;;5008583;28;20022;-79
2023/05/09 09:55:50;;;;;;;15.07;11.25;;;19.50;99.90;;;;;;5004547;28;20084;-79
2023/05/09 09:58:17;;;;;;;16.80;12.18;;;19.70;99.90;;;;;;5005548;28;20030;-79
2023/05/09 10:00:44;;;;;;;15.82;11.43;;;19.90;99.90;;;;;;5005923;28;20103;-79
2023/05/09 10:03:15;;;;;;;16.50;11.73;;;19.90;99.90;;;;;;5005230;28;20706;-79
2023/05/09 10:05:41;;;;;;;18.27;12.13;;;20.00;99.90;;;;;;5005891;28;20045;-79
2023/05/09 10:08:08;;;;;;;17.92;12.00;;;20.10;99.90;;;;;;5005823;28;20419;-79
2023/05/09 10:10:34;;;;;;;15.23;12.90;;;20.00;99.90;;;;;;5005374;28;20026;-79
2023/05/09 10:13:08;;;;;;;12.43;10.73;;;19.90;99.90;;;;;;5004392;28;20034;-80
2023/05/09 10:15:36;;;;;;;15.00;11.33;;;19.80;99.90;;;;;;5005298;28;20036;-79
2023/05/09 10:18:03;;;;;;;14.85;10.63;;;20.10;99.90;;;;;;5006348;28;21501;-80
2023/05/09 10:20:29;;;;;;;12.45;11.07;;;20.20;99.90;;;;;;5002984;28;20046;-79
2023/05/09 10:23:02;;;;;;;12.38;10.25;;;20.30;99.90;;;;;;5003598;28;20482;-80
2023/05/09 10:25:41;;;;;;;13.52;11.00;;;20.40;99.90;;;;;;5004536;28;20040;-78
2023/05/09 10:28:11;;;;;;;12.32;10.75;;;20.50;99.90;;;;;;5004129;28;20489;-79
2023/05/09 10:30:57;;;;;;;16.67;11.55;;;20.40;99.90;;;;;;5004883;28;20033;-79
2023/05/09 10:33:40;;;;;;;13.60;10.77;;;20.60;99.90;;;;;;5005198;28;20024;-80
2023/05/09 10:36:07;;;;;;;13.18;11.05;;;20.60;99.90;;;;;;5004155;28;20029;-79
2023/05/09 10:38:33;;;;;;;12.70;10.60;;;20.70;99.90;;;;;;5004792;28;20036;-80
2023/05/09 10:41:00;;;;;;;13.25;10.98;;;20.90;99.90;;;;;;5004032;28;20042;-79
2023/05/09 10:43:27;;;;;;;16.25;10.40;;;20.90;99.90;;;;;;5002893;28;20056;-79
2023/05/09 10:45:53;;;;;;;15.90;10.75;;;21.20;99.90;;;;;;5003075;28;20026;-79
2023/05/09 10:48:18;;;;;;;14.32;11.07;;;21.20;99.90;;;;;;5003799;28;20088;-81
2023/05/09 10:50:45;;;;;;;11.43;10.05;;;21.00;99.90;;;;;;5003936;28;20041;-80
2023/05/09 10:53:13;;;;;;;15.95;10.93;;;21.00;99.90;;;;;;5004166;28;20085;-79
2023/05/09 10:55:56;;;;;;;14.32;11.27;;;21.10;99.90;;;;;;5003650;28;20041;-78
2023/05/09 10:58:27;;;;;;;14.18;10.18;;;21.30;99.90;;;;;;5003544;28;20038;-78
2023/05/09 11:00:55;;;;;;;13.35;9.68;;;21.30;99.90;;;;;;5002991;28;20061;-79
2023/05/09 11:03:22;;;;;;;11.70;10.40;;;21.30;99.90;;;;;;5032288;22;20393;-83
2023/05/09 11:05:50;;;;;;;16.08;10.15;;;21.60;99.90;;;;;;5026673;28;20076;-82
2023/05/09 11:08:29;;;;;;;12.13;10.30;;;21.80;99.90;;;;;;5025266;28;20033;-82
2023/05/09 11:10:56;;;;;;;13.07;10.80;;;22.00;99.90;;;;;;5029162;28;20033;-82
2023/05/09 11:13:24;;;;;;;15.55;11.35;;;22.00;99.90;;;;;;5028657;28;20105;-82
2023/05/09 11:15:52;;;;;;;21.35;11.98;;;22.00;99.90;;;;;;5027795;28;20421;-82
2023/05/09 11:18:18;;;;;;;12.13;9.95;;;22.10;99.90;;;;;;5027670;28;20393;-80
2023/05/09 11:20:47;;;;;;;14.70;9.13;;;22.10;99.90;;;;;;5028961;28;20029;-80
2023/05/09 11:23:18;;;;;;;12.30;9.55;;;22.30;99.90;;;;;;5028100;28;20040;-80
2023/05/09 11:25:48;;;;;;;13.88;9.18;;;22.40;99.90;;;;;;5027644;28;20033;-80
2023/05/09 11:28:31;;;;;;;13.20;9.88;;;22.40;99.90;;;;;;5028215;28;20887;-80
2023/05/09 11:31:17;;;;;;;12.77;9.40;;;22.40;99.90;;;;;;5024353;28;20033;-81
2023/05/09 11:33:45;;;;;;;14.02;10.95;;;22.60;99.90;;;;;;5027900;28;20762;-80
2023/05/09 11:36:28;;;;;;;13.70;9.93;;;22.90;99.90;;;;;;5028324;28;20783;-80
2023/05/09 11:39:10;;;;;;;13.77;9.80;;;22.80;99.90;;;;;;5032024;28;20041;-81
2023/05/09 11:41:41;;;;;;;15.18;11.60;;;22.70;99.90;;;;;;5030970;28;20044;-81
2023/05/09 11:44:16;;;;;;;10.82;9.63;;;22.70;99.90;;;;;;5031003;28;20489;-82
2023/05/09 11:46:43;;;;;;;18.10;8.35;;;22.80;99.90;;;;;;5029275;28;20037;-81
2023/05/09 11:49:09;;;;;;;8.77;7.88;;;22.90;99.90;;;;;;5028864;28;20026;-81
2023/05/09 11:51:38;;;;;;;10.57;9.23;;;23.20;99.90;;;;;;5030781;28;20100;-80
2023/05/09 11:54:09;;;;;;;11.95;9.55;;;23.50;99.90;;;;;;5031928;28;20048;-80
2023/05/09 11:56:40;;;;;;;11.65;10.13;;;23.50;99.90;;;;;;5031085;28;20029;-80
2023/05/09 11:59:06;;;;;;;12.18;9.90;;;23.30;99.90;;;;;;5032064;28;20033;-81
2023/05/09 12:01:32;;;;;;;11.95;9.35;;;23.00;99.90;;;;;;5032103;28;20025;-80
2023/05/09 12:03:58;;;;;;;11.77;9.05;;;22.80;99.90;;;;;;5031042;28;20151;-80
2023/05/09 12:06:25;;;;;;;14.98;9.48;;;22.80;99.90;;;;;;5030699;28;20057;-82
2023/05/09 12:08:51;;;;;;;12.13;9.63;;;22.90;99.90;;;;;;5031597;28;20029;-80
2023/05/09 12:11:17;;;;;;;10.60;9.50;;;23.00;99.90;;;;;;5031851;28;20505;-80
2023/05/09 12:13:45;;;;;;;13.75;9.90;;;23.10;99.90;;;;;;5030087;28;20026;-81
2023/05/09 12:16:11;;;;;;;14.40;10.70;;;23.20;99.90;;;;;;5029161;28;20042;-82
2023/05/09 12:18:37;;;;;;;12.88;10.68;;;23.40;99.90;;;;;;5032551;28;20029;-82
2023/05/09 12:21:03;;;;;;;14.45;10.98;;;23.60;99.90;;;;;;5032907;28;20060;-81
2023/05/09 12:23:33;;;;;;;13.48;10.98;;;23.60;99.90;;;;;;5031333;28;20025;-82
2023/05/09 12:25:59;;;;;;;12.45;11.10;;;23.60;99.90;;;;;;5033419;28;20091;-81
2023/05/09 12:28:25;;;;;;;11.68;9.90;;;23.30;99.90;;;;;;5031597;28;20127;-82
2023/05/09 12:30:52;;;;;;;10.35;9.27;;;23.20;99.90;;;;;;5031945;28;20104;-82
2023/05/09 12:33:18;;;;;;;14.93;11.57;;;23.10;99.90;;;;;;5032068;28;20635;-81